createdAt,value
2022-10-09T00:01:25.440Z,83.11
2022-10-09T00:03:55.120Z,83.04
2022-10-09T00:06:29.377Z,83.26
2022-10-09T00:08:57.192Z,83.26
2022-10-09T00:11:26.721Z,83.49
2022-10-09T00:13:55.508Z,84.04
2022-10-09T00:16:24.697Z,84.23
2022-10-09T00:18:52.643Z,84.22
2022-10-09T00:21:20.229Z,84.76
2022-10-09T00:23:48.746Z,84.34
2022-10-09T00:26:16.956Z,84.73
2022-10-09T00:28:45.307Z,84.93
2022-10-09T00:31:13.473Z,84.92
2022-10-09T00:33:41.196Z,85.22
2022-10-09T00:36:28.469Z,85.06
2022-10-09T00:38:56.296Z,85.06
2022-10-09T00:41:30.549Z,84.64
2022-10-09T00:44:00.822Z,85.08
2022-10-09T00:46:34.799Z,84.95
2022-10-09T00:49:08.151Z,85.61
2022-10-09T00:51:36.437Z,84.87
2022-10-09T00:54:07.563Z,84.92
2022-10-09T00:56:35.589Z,84.72
2022-10-09T00:59:04.371Z,84.59
2022-10-09T01:01:32.063Z,84.50
2022-10-09T01:03:59.546Z,84.27
2022-10-09T01:06:48.334Z,83.99
2022-10-09T01:09:23.562Z,84.10
2022-10-09T01:12:25.644Z,83.70
2022-10-09T01:15:07.956Z,83.77
2022-10-09T01:17:42.296Z,83.84
2022-10-09T01:20:26.898Z,83.74
2022-10-09T01:23:00.155Z,83.56
2022-10-09T01:25:43.411Z,83.60
2022-10-09T01:28:12.916Z,83.69
2022-10-09T01:30:41.307Z,83.74
2022-10-09T01:33:11.140Z,83.70
2022-10-09T01:35:40.070Z,83.33
2022-10-09T01:38:08.197Z,83.66
2022-10-09T01:40:37.065Z,83.56
2022-10-09T01:43:05.618Z,83.75
2022-10-09T01:45:42.559Z,83.64
2022-10-09T01:48:16.252Z,83.52
2022-10-09T01:50:46.506Z,83.55
2022-10-09T01:53:19.384Z,83.48
2022-10-09T01:55:58.669Z,83.53
2022-10-09T01:58:36.375Z,83.43
2022-10-09T02:01:13.231Z,83.19
2022-10-09T02:03:44.743Z,83.19
2022-10-09T02:06:14.256Z,83.37
2022-10-09T02:08:44.649Z,83.25
2022-10-09T02:11:17.615Z,83.24
2022-10-09T02:13:50.765Z,83.71
2022-10-09T02:16:37.204Z,83.39
2022-10-09T02:19:17.325Z,83.23
2022-10-09T02:21:54.733Z,83.26
2022-10-09T02:24:23.651Z,83.12
2022-10-09T02:26:54.404Z,83.14
2022-10-09T02:29:22.174Z,83.34
2022-10-09T02:31:49.779Z,83.30
2022-10-09T02:34:19.650Z,83.62
2022-10-09T02:36:48.232Z,83.32
2022-10-09T02:39:15.730Z,83.44
2022-10-09T02:41:43.595Z,83.46
2022-10-09T02:44:11.066Z,83.31
2022-10-09T02:46:38.787Z,83.34
2022-10-09T02:49:07.058Z,83.00
2022-10-09T02:51:34.741Z,83.16
2022-10-09T02:54:02.566Z,83.04
2022-10-09T02:56:30.429Z,83.21
2022-10-09T02:58:58.550Z,82.61
2022-10-09T03:01:26.335Z,82.72
2022-10-09T03:03:53.988Z,82.62
2022-10-09T03:06:24.876Z,82.55
2022-10-09T03:08:53.445Z,82.50
2022-10-09T03:11:24.133Z,82.31
2022-10-09T03:13:52.183Z,82.28
2022-10-09T03:16:22.630Z,81.85
2022-10-09T03:18:51.343Z,82.00
2022-10-09T03:21:25.225Z,81.95
2022-10-09T03:23:53.564Z,82.11
2022-10-09T03:26:24.055Z,81.78
2022-10-09T03:28:53.649Z,81.99
2022-10-09T03:34:12.355Z,81.91
2022-10-09T03:36:40.208Z,81.90
2022-10-09T03:39:08.463Z,81.71
2022-10-09T03:41:36.109Z,81.77
2022-10-09T03:44:03.741Z,81.88
2022-10-09T03:46:31.284Z,81.66
2022-10-09T03:48:58.827Z,81.48
2022-10-09T03:51:26.674Z,81.50
2022-10-09T03:53:54.209Z,81.22
2022-10-09T03:56:22.062Z,80.96
2022-10-09T03:58:49.572Z,80.80
2022-10-09T04:01:17.116Z,80.61
2022-10-09T04:03:44.678Z,80.45
2022-10-09T04:06:12.504Z,80.48
2022-10-09T04:08:40.090Z,80.26
2022-10-09T04:11:07.574Z,80.26
2022-10-09T04:13:35.354Z,80.13
2022-10-09T04:16:03.143Z,79.55
2022-10-09T04:18:30.971Z,79.54
2022-10-09T04:20:58.534Z,79.35
2022-10-09T04:23:27.395Z,79.13
2022-10-09T04:25:56.472Z,79.07
2022-10-09T04:28:24.696Z,79.04
2022-10-09T04:30:52.580Z,78.84
2022-10-09T04:33:20.509Z,78.65
2022-10-09T04:35:51.336Z,78.01
2022-10-09T04:38:20.272Z,77.89
2022-10-09T04:41:07.306Z,77.06
2022-10-09T04:43:35.624Z,77.56
2022-10-09T04:46:07.559Z,77.33
2022-10-09T04:48:43.099Z,77.00
2022-10-09T04:51:10.816Z,77.16
2022-10-09T04:53:39.184Z,76.93
2022-10-09T04:56:10.284Z,77.11
2022-10-09T04:58:40.677Z,76.77
2022-10-09T05:01:14.822Z,76.74
2022-10-09T05:03:42.560Z,76.56
2022-10-09T05:06:11.807Z,76.24
2022-10-09T05:08:39.880Z,76.25
2022-10-09T05:11:10.854Z,76.38
2022-10-09T05:13:41.613Z,75.99
2022-10-09T05:16:14.406Z,76.10
2022-10-09T05:18:44.356Z,76.21
2022-10-09T05:21:12.363Z,76.48
2022-10-09T05:23:40.171Z,75.98
2022-10-09T05:26:11.118Z,76.01
2022-10-09T05:28:39.394Z,76.25
2022-10-09T05:31:08.419Z,76.30
2022-10-09T05:33:36.409Z,75.94
2022-10-09T05:36:05.413Z,76.25
2022-10-09T05:38:34.769Z,76.53
2022-10-09T05:41:04.989Z,76.50
2022-10-09T05:43:40.716Z,76.45
2022-10-09T05:46:09.851Z,76.44
2022-10-09T05:48:39.335Z,76.64
2022-10-09T05:51:18.558Z,76.28
2022-10-09T05:53:47.442Z,76.38
2022-10-09T05:56:18.895Z,76.43
2022-10-09T05:58:53.470Z,76.38
2022-10-09T06:01:23.231Z,76.28
2022-10-09T06:03:52.502Z,76.28
2022-10-09T06:06:21.466Z,76.68
2022-10-09T06:08:49.480Z,76.55
2022-10-09T06:11:22.769Z,76.30
2022-10-09T06:13:51.515Z,76.45
2022-10-09T06:16:19.104Z,76.54
2022-10-09T06:18:49.334Z,76.42
2022-10-09T06:21:17.554Z,75.97
2022-10-09T06:23:45.192Z,76.04
2022-10-09T06:26:13.473Z,76.06
2022-10-09T06:28:41.200Z,76.17
2022-10-09T06:31:11.737Z,76.35
2022-10-09T06:33:41.778Z,76.46
2022-10-09T06:36:14.811Z,76.63
2022-10-09T06:38:42.978Z,76.40
2022-10-09T06:41:12.683Z,76.22
2022-10-09T06:43:41.089Z,76.21
2022-10-09T06:46:11.623Z,76.46
2022-10-09T06:48:40.534Z,76.39
2022-10-09T06:51:11.742Z,76.25
2022-10-09T06:53:41.740Z,76.31
2022-10-09T06:56:10.562Z,76.12
2022-10-09T06:58:39.195Z,75.99
2022-10-09T07:01:13.200Z,75.96
2022-10-09T07:03:43.087Z,76.16
2022-10-09T07:06:14.766Z,76.15
2022-10-09T07:08:44.935Z,75.71
2022-10-09T07:11:17.353Z,75.51
2022-10-09T07:13:45.067Z,75.51
2022-10-09T07:16:12.719Z,75.60
2022-10-09T07:18:40.389Z,75.39
2022-10-09T07:21:10.081Z,75.40
2022-10-09T07:23:37.731Z,75.17
2022-10-09T07:26:11.957Z,74.44
2022-10-09T07:28:41.271Z,74.51
2022-10-09T07:31:10.379Z,74.09
2022-10-09T07:33:38.894Z,73.74
2022-10-09T07:36:06.810Z,73.93
2022-10-09T07:38:34.468Z,73.89
2022-10-09T07:41:07.874Z,73.76
2022-10-09T07:43:37.329Z,73.46
2022-10-09T07:46:06.910Z,73.25
2022-10-09T07:48:35.699Z,73.30
2022-10-09T07:51:16.422Z,72.86
2022-10-09T07:53:45.046Z,73.13
2022-10-09T07:56:18.119Z,72.46
2022-10-09T07:58:53.505Z,73.46
2022-10-09T08:01:22.218Z,73.74
2022-10-09T08:03:50.013Z,74.49
2022-10-09T08:06:19.086Z,74.77
2022-10-09T08:08:51.157Z,74.78
2022-10-09T08:11:20.728Z,74.90
2022-10-09T08:13:50.117Z,75.21
2022-10-09T08:16:20.977Z,75.52
2022-10-09T08:18:48.944Z,75.60
2022-10-09T08:21:18.817Z,75.90
2022-10-09T08:23:46.660Z,76.05
2022-10-09T08:26:20.107Z,76.20
2022-10-09T08:28:53.530Z,76.15
2022-10-09T08:31:21.963Z,76.28
2022-10-09T08:33:53.229Z,76.16
2022-10-09T08:36:21.697Z,75.90
2022-10-09T08:38:49.642Z,75.92
2022-10-09T08:41:42.268Z,76.16
2022-10-09T08:44:09.738Z,76.02
2022-10-09T08:46:50.180Z,75.78
2022-10-09T08:49:33.203Z,75.87
2022-10-09T08:52:15.796Z,75.50
2022-10-09T08:54:43.519Z,75.85
2022-10-09T08:57:16.600Z,75.49
2022-10-09T08:59:44.551Z,75.38
2022-10-09T09:02:56.246Z,75.12
2022-10-09T09:06:01.275Z,74.42
2022-10-09T09:08:28.986Z,74.82
2022-10-09T09:11:23.779Z,74.15
2022-10-09T09:14:02.419Z,74.72
2022-10-09T09:16:41.546Z,74.44
2022-10-09T09:19:33.949Z,73.08
2022-10-09T09:22:01.894Z,73.31
2022-10-09T09:24:40.502Z,72.55
2022-10-09T09:27:16.990Z,72.06
2022-10-09T09:29:50.414Z,71.67
2022-10-09T09:32:22.906Z,70.65
2022-10-09T09:34:51.017Z,71.52
2022-10-09T09:37:18.463Z,71.49
2022-10-09T09:42:33.833Z,71.93
2022-10-09T09:45:05.100Z,71.74
2022-10-09T09:47:50.117Z,71.71
2022-10-09T09:50:47.132Z,71.62
2022-10-09T09:53:30.440Z,71.51
2022-10-09T09:55:58.502Z,71.17
2022-10-09T09:58:36.163Z,69.77
2022-10-09T10:01:06.519Z,68.76
2022-10-09T10:03:36.105Z,68.08
2022-10-09T10:06:04.049Z,67.78
2022-10-09T10:08:34.036Z,66.93
2022-10-09T10:11:07.536Z,64.16
2022-10-09T10:13:39.183Z,64.16
2022-10-09T10:16:08.339Z,63.94
2022-10-09T10:18:41.867Z,63.69
2022-10-09T10:21:15.277Z,63.46
2022-10-09T10:23:52.164Z,63.96
2022-10-09T10:26:36.895Z,64.39
2022-10-09T10:29:22.595Z,64.86
2022-10-09T10:32:11.988Z,65.49
2022-10-09T10:34:52.443Z,65.51
2022-10-09T10:37:41.304Z,65.22
2022-10-09T10:40:21.576Z,65.62
2022-10-09T10:43:10.953Z,66.06
2022-10-09T10:45:44.267Z,66.08
2022-10-09T10:48:38.178Z,65.67
2022-10-09T10:51:26.918Z,66.45
2022-10-09T10:54:45.687Z,65.96
2022-10-09T10:57:22.412Z,67.18
2022-10-09T11:00:06.523Z,66.51
2022-10-09T11:03:03.303Z,66.85
2022-10-09T11:05:53.752Z,65.92
2022-10-09T11:08:50.246Z,66.32
2022-10-09T11:11:51.997Z,65.34
2022-10-09T11:14:54.512Z,64.16
2022-10-09T11:17:48.943Z,63.87
2022-10-09T11:21:04.132Z,63.42
2022-10-09T11:23:51.407Z,63.86
2022-10-09T11:26:24.716Z,63.72
2022-10-09T11:29:00.865Z,63.18
2022-10-09T11:32:01.832Z,61.81
2022-10-09T11:34:43.718Z,62.25
2022-10-09T11:37:22.342Z,62.69
2022-10-09T11:39:49.852Z,62.89
2022-10-09T11:42:21.603Z,63.08
2022-10-09T11:45:19.876Z,62.72
2022-10-09T11:48:03.335Z,63.69
2022-10-09T11:50:53.964Z,63.98
2022-10-09T11:53:25.146Z,64.87
2022-10-09T11:56:19.312Z,65.53
2022-10-09T11:58:59.623Z,66.55
2022-10-09T12:01:38.951Z,67.07
2022-10-09T12:04:12.268Z,67.01
2022-10-09T12:06:58.768Z,67.10
2022-10-09T12:09:31.077Z,67.69
2022-10-09T12:12:03.810Z,68.24
2022-10-09T12:14:31.372Z,68.14
2022-10-09T12:16:59.584Z,68.94
2022-10-09T12:19:39.717Z,70.05
2022-10-09T12:22:13.234Z,70.86
2022-10-09T12:24:45.533Z,71.25
2022-10-09T12:27:33.610Z,71.72
2022-10-09T12:30:16.002Z,72.73
2022-10-09T12:32:48.472Z,72.60
2022-10-09T12:35:19.062Z,73.59
2022-10-09T12:37:46.649Z,73.96
2022-10-09T12:40:22.574Z,73.92
2022-10-09T12:42:53.688Z,74.70
2022-10-09T12:45:24.518Z,75.13
2022-10-09T12:47:53.651Z,75.47
2022-10-09T12:50:34.856Z,75.47
2022-10-09T12:53:05.147Z,75.79
2022-10-09T12:55:35.352Z,76.49
2022-10-09T12:58:08.023Z,76.86
2022-10-09T13:00:36.059Z,76.76
2022-10-09T13:03:03.558Z,76.96
2022-10-09T13:05:39.149Z,76.91
2022-10-09T13:08:21.271Z,76.98
2022-10-09T13:10:48.928Z,77.27
2022-10-09T13:13:25.186Z,77.48
2022-10-09T13:16:06.957Z,77.68
2022-10-09T13:18:34.985Z,78.02
2022-10-09T13:21:04.131Z,77.92
2022-10-09T13:23:34.343Z,77.94
2022-10-09T13:26:04.660Z,78.88
2022-10-09T13:28:32.274Z,78.94
2022-10-09T13:31:07.866Z,79.38
2022-10-09T13:33:35.611Z,79.83
2022-10-09T13:36:03.210Z,80.41
2022-10-09T13:38:34.770Z,80.38
2022-10-09T13:41:02.953Z,80.56
2022-10-09T13:43:31.287Z,81.06
2022-10-09T13:45:59.137Z,81.56
2022-10-09T13:48:26.770Z,81.59
2022-10-09T13:50:54.368Z,81.91
2022-10-09T13:53:22.010Z,82.55
2022-10-09T13:55:49.580Z,83.16
2022-10-09T13:58:17.144Z,83.87
2022-10-09T14:00:45.416Z,84.01
2022-10-09T14:03:13.013Z,84.74
2022-10-09T14:05:41.050Z,85.55
2022-10-09T14:08:08.691Z,86.07
2022-10-09T14:10:36.399Z,85.97
2022-10-09T14:13:03.924Z,86.36
2022-10-09T14:15:31.493Z,87.24
2022-10-09T14:17:58.966Z,87.77
2022-10-09T14:20:28.695Z,87.94
2022-10-09T14:22:56.227Z,88.23
2022-10-09T14:25:23.864Z,88.92
2022-10-09T14:27:51.392Z,89.17
2022-10-09T14:30:18.988Z,89.34
2022-10-09T14:32:47.529Z,89.93
2022-10-09T14:35:20.605Z,89.70
2022-10-09T14:37:49.001Z,89.92
2022-10-09T14:40:16.785Z,90.44
2022-10-09T14:42:44.315Z,90.36
2022-10-09T14:45:11.881Z,90.89
2022-10-09T14:47:39.421Z,91.18
2022-10-09T14:50:07.370Z,91.41
2022-10-09T14:52:34.935Z,91.42
2022-10-09T14:55:02.467Z,92.02
2022-10-09T14:57:32.978Z,92.42
2022-10-09T15:00:04.797Z,91.90
2022-10-09T15:02:32.345Z,92.12
2022-10-09T15:04:59.919Z,92.23
2022-10-09T15:07:28.331Z,92.62
2022-10-09T15:09:57.026Z,92.95
2022-10-09T15:12:24.611Z,92.97
2022-10-09T15:14:52.381Z,92.76
2022-10-09T15:17:19.846Z,92.89
2022-10-09T15:19:47.303Z,93.12
2022-10-09T15:22:15.294Z,93.33
2022-10-09T15:24:42.794Z,93.18
2022-10-09T15:27:10.351Z,93.33
2022-10-09T15:29:38.014Z,93.13
2022-10-09T15:32:05.497Z,93.54
2022-10-09T15:34:33.598Z,93.53
2022-10-09T15:37:02.258Z,93.73
2022-10-09T15:39:29.925Z,93.59
2022-10-09T15:41:57.435Z,93.66
2022-10-09T15:44:24.942Z,93.64
2022-10-09T15:46:52.460Z,93.89
2022-10-09T15:49:19.975Z,93.99
2022-10-09T15:51:47.485Z,93.85
2022-10-09T15:54:15.529Z,93.82
2022-10-09T15:56:43.124Z,94.09
2022-10-09T15:59:12.768Z,94.14
2022-10-09T16:01:40.345Z,94.19
2022-10-09T16:04:08.387Z,93.92
2022-10-09T16:06:35.978Z,94.00
2022-10-09T16:09:04.626Z,94.14
2022-10-09T16:11:32.164Z,93.98
2022-10-09T16:13:59.741Z,94.14
2022-10-09T16:16:27.855Z,94.05
2022-10-09T16:18:56.355Z,94.02
2022-10-09T16:21:28.214Z,93.85
2022-10-09T16:23:59.294Z,94.29
2022-10-09T16:26:29.755Z,93.95
2022-10-09T16:29:00.315Z,94.07
2022-10-09T16:31:31.171Z,94.40
2022-10-09T16:33:58.988Z,94.46
2022-10-09T16:36:27.424Z,94.57
2022-10-09T16:38:56.592Z,94.33
2022-10-09T16:41:24.512Z,94.33
2022-10-09T16:43:54.274Z,94.37
2022-10-09T16:49:06.565Z,94.53
2022-10-09T16:51:35.897Z,94.38
2022-10-09T16:54:05.540Z,94.70
2022-10-09T16:56:37.502Z,94.51
2022-10-09T16:59:11.252Z,94.69
2022-10-09T17:01:43.618Z,94.62
2022-10-09T17:04:12.882Z,94.72
2022-10-09T17:06:44.170Z,95.14
2022-10-09T17:09:14.169Z,94.94
2022-10-09T17:11:42.693Z,95.24
2022-10-09T17:14:10.658Z,95.41
2022-10-09T17:16:40.199Z,95.00
2022-10-09T17:19:08.392Z,95.12
2022-10-09T17:21:36.236Z,95.45
2022-10-09T17:24:05.668Z,95.63
2022-10-09T17:26:33.573Z,95.77
2022-10-09T17:29:01.978Z,95.24
2022-10-09T17:31:30.248Z,95.70
2022-10-09T17:33:59.956Z,95.19
2022-10-09T17:36:30.325Z,95.66
2022-10-09T17:38:57.984Z,95.45
2022-10-09T17:41:26.618Z,95.40
2022-10-09T17:43:55.701Z,95.89
2022-10-09T17:46:25.807Z,95.99
2022-10-09T17:48:53.850Z,95.94
2022-10-09T17:51:22.546Z,95.79
2022-10-09T17:53:50.132Z,95.65
2022-10-09T17:56:18.821Z,95.83
2022-10-09T17:58:50.225Z,96.06
2022-10-09T18:01:18.450Z,95.84
2022-10-09T18:03:45.990Z,95.77
2022-10-09T18:06:17.690Z,95.27
2022-10-09T18:08:45.756Z,94.68
2022-10-09T18:11:15.987Z,94.73
2022-10-09T18:13:44.677Z,94.52
2022-10-09T18:16:19.147Z,94.70
2022-10-09T18:18:46.899Z,94.44
2022-10-09T18:21:18.922Z,94.16
2022-10-09T18:23:47.546Z,94.40
2022-10-09T18:26:17.827Z,93.98
2022-10-09T18:28:48.391Z,93.92
2022-10-09T18:31:20.597Z,93.98
2022-10-09T18:33:48.159Z,93.99
2022-10-09T18:36:19.844Z,93.71
2022-10-09T18:38:55.411Z,93.96
2022-10-09T18:41:23.437Z,93.84
2022-10-09T18:43:52.042Z,93.84
2022-10-09T18:46:23.586Z,93.79
2022-10-09T18:48:52.610Z,93.36
2022-10-09T18:51:23.764Z,93.76
2022-10-09T18:53:56.295Z,93.92
2022-10-09T18:56:24.346Z,93.80
2022-10-09T18:58:52.956Z,93.97
2022-10-09T19:01:20.876Z,93.67
2022-10-09T19:03:50.170Z,93.71
2022-10-09T19:06:19.246Z,93.55
2022-10-09T19:08:47.313Z,93.45
2022-10-09T19:11:15.336Z,92.94
2022-10-09T19:13:44.530Z,92.75
2022-10-09T19:16:12.474Z,92.63
2022-10-09T19:18:40.173Z,92.62
2022-10-09T19:21:11.916Z,92.59
2022-10-09T19:23:39.464Z,92.52
2022-10-09T19:26:06.979Z,91.99
2022-10-09T19:28:37.912Z,92.38
2022-10-09T19:31:07.487Z,92.14
2022-10-09T19:33:35.906Z,92.05
2022-10-09T19:36:04.327Z,91.79
2022-10-09T19:38:32.242Z,91.34
2022-10-09T19:41:08.526Z,91.42
2022-10-09T19:43:36.519Z,91.39
2022-10-09T19:46:14.325Z,90.90
2022-10-09T19:48:41.903Z,90.55
2022-10-09T19:51:14.934Z,90.73
2022-10-09T19:53:43.690Z,91.04
2022-10-09T19:56:16.902Z,90.75
2022-10-09T19:58:46.607Z,90.66
2022-10-09T20:01:17.113Z,90.38
2022-10-09T20:03:44.772Z,89.93
2022-10-09T20:06:12.878Z,90.40
2022-10-09T20:08:41.302Z,89.99
2022-10-09T20:11:11.424Z,89.68
2022-10-09T20:13:40.460Z,89.89
2022-10-09T20:16:12.256Z,89.89
2022-10-09T20:18:42.353Z,90.10
2022-10-09T20:21:11.807Z,90.19
2022-10-09T20:23:39.904Z,90.97
2022-10-09T20:26:16.222Z,89.97
2022-10-09T20:28:44.207Z,90.14
2022-10-09T20:31:20.712Z,90.59
2022-10-09T20:33:49.203Z,90.75
2022-10-09T20:36:30.018Z,90.39
2022-10-09T20:39:02.791Z,90.96
2022-10-09T20:41:32.088Z,90.92
2022-10-09T20:44:01.291Z,90.70
2022-10-09T20:46:32.809Z,90.87
2022-10-09T20:49:03.407Z,90.82
2022-10-09T20:51:31.264Z,91.05
2022-10-09T20:54:00.236Z,91.25
2022-10-09T20:56:30.401Z,91.14
2022-10-09T20:58:58.761Z,90.87
2022-10-09T21:01:28.363Z,91.62
2022-10-09T21:03:57.672Z,90.97
2022-10-09T21:06:25.733Z,91.28
2022-10-09T21:08:53.291Z,91.18
2022-10-09T21:11:20.919Z,91.49
2022-10-09T21:13:49.566Z,90.76
2022-10-09T21:16:20.887Z,90.69
2022-10-09T21:18:57.889Z,91.10
2022-10-09T21:21:25.850Z,89.96
2022-10-09T21:23:55.085Z,89.78
2022-10-09T21:26:24.277Z,89.82
2022-10-09T21:28:56.728Z,89.87
2022-10-09T21:31:28.724Z,89.80
2022-10-09T21:33:57.449Z,89.27
2022-10-09T21:36:55.857Z,89.67
2022-10-09T21:39:28.324Z,89.66
2022-10-09T21:41:56.137Z,89.33
2022-10-09T21:44:23.663Z,90.02
2022-10-09T21:46:51.752Z,89.71
2022-10-09T21:49:22.137Z,88.83
2022-10-09T21:51:49.750Z,89.79
2022-10-09T21:54:17.447Z,89.70
2022-10-09T21:56:45.141Z,89.33
2022-10-09T21:59:12.636Z,89.74
2022-10-09T22:01:40.188Z,89.51
2022-10-09T22:04:07.708Z,89.87
2022-10-09T22:06:35.225Z,89.76
2022-10-09T22:09:02.906Z,90.24
2022-10-09T22:11:30.433Z,90.03
2022-10-09T22:13:58.020Z,89.40
2022-10-09T22:16:25.691Z,89.53
2022-10-09T22:18:53.370Z,89.41
2022-10-09T22:21:22.930Z,89.93
2022-10-09T22:23:50.806Z,90.01
2022-10-09T22:26:21.495Z,89.43
2022-10-09T22:28:50.183Z,89.55
2022-10-09T22:31:22.965Z,89.53
2022-10-09T22:34:00.517Z,89.59
2022-10-09T22:36:30.757Z,89.90
2022-10-09T22:39:01.430Z,89.52
2022-10-09T22:41:29.989Z,89.64
2022-10-09T22:43:58.836Z,89.93
2022-10-09T22:46:32.398Z,90.03
2022-10-09T22:49:00.833Z,90.55
2022-10-09T22:51:29.231Z,90.61
2022-10-09T22:53:58.220Z,90.80
2022-10-09T22:56:32.479Z,90.27
2022-10-09T22:59:00.204Z,90.64
2022-10-09T23:01:32.722Z,89.85
2022-10-09T23:04:03.320Z,89.97
2022-10-09T23:06:31.706Z,89.97
2022-10-09T23:09:00.363Z,90.46
2022-10-09T23:11:27.935Z,90.38
2022-10-09T23:13:57.564Z,90.20
2022-10-09T23:16:27.075Z,90.13
2022-10-09T23:18:55.498Z,90.32
2022-10-09T23:21:25.071Z,91.06
2022-10-09T23:23:53.682Z,91.38
2022-10-09T23:26:27.187Z,91.57
2022-10-09T23:28:59.484Z,91.78
2022-10-09T23:31:28.295Z,91.72
2022-10-09T23:33:56.679Z,92.10
2022-10-09T23:36:26.460Z,91.97
2022-10-09T23:38:54.679Z,91.29
2022-10-09T23:41:23.988Z,91.51
2022-10-09T23:43:52.005Z,91.43
2022-10-09T23:46:25.513Z,91.03
2022-10-09T23:48:53.743Z,91.09
2022-10-09T23:51:23.362Z,91.15
2022-10-09T23:53:51.811Z,91.10
2022-10-09T23:56:21.673Z,90.88
2022-10-09T23:58:49.559Z,91.49
